Time;durP1;ratioP1;P1;durP2;ratioP2;P2;SDS_P1;SDS_P2;PMS_P1;PMS_P2;Temp;Humidity;BMP_temperature;BMP_pressure;BME280_temperature;BME280_humidity;BME280_pressure;Samples;Min_cycle;Max_cycle;Signal;HPM_P1;HPM_P2
2021/07/17 00:00:11;;;;;;;;;;;19.20;99.90;;;;;;6325068;28;19927;-73
2021/07/17 00:03:13;;;;;;;;;;;19.20;99.90;;;;;;6329899;28;19928;-73
2021/07/17 00:06:14;;;;;;;;;;;19.10;99.90;;;;;;6334148;28;20396;-73
2021/07/17 00:09:16;;;;;;;;;;;19.10;99.90;;;;;;6330949;28;19942;-73
2021/07/17 00:12:18;;;;;;;;;;;19.10;99.90;;;;;;6332558;28;19961;-73
2021/07/17 00:15:21;;;;;;;;;;;19.10;99.90;;;;;;6319508;28;20011;-74
2021/07/17 00:18:23;;;;;;;;;;;19.10;99.90;;;;;;6339502;28;20313;-73
2021/07/17 00:21:24;;;;;;;;;;;19.10;99.90;;;;;;6340156;28;20363;-73
2021/07/17 00:24:26;;;;;;;;;;;19.10;99.90;;;;;;6329884;28;19927;-73
2021/07/17 00:27:28;;;;;;;;;;;19.00;99.90;;;;;;6329812;28;19924;-73
2021/07/17 00:30:29;;;;;;;;;;;19.00;99.90;;;;;;6315350;28;20321;-74
2021/07/17 00:33:31;;;;;;;;;;;19.00;99.90;;;;;;6326059;28;19948;-74
2021/07/17 00:36:33;;;;;;;;;;;18.90;99.90;;;;;;6323563;28;20436;-73
2021/07/17 00:39:34;;;;;;;;;;;19.00;99.90;;;;;;6333753;28;19924;-73
2021/07/17 00:42:40;;;;;;;;;;;19.00;99.90;;;;;;6338972;28;20435;-73
2021/07/17 00:45:42;;;;;;;;;;;19.00;99.90;;;;;;6322256;28;19935;-73
2021/07/17 00:48:44;;;;;;;;;;;19.00;99.90;;;;;;6334097;28;19943;-73
2021/07/17 00:51:45;;;;;;;;;;;19.00;99.90;;;;;;6342067;28;20268;-73
2021/07/17 00:54:49;;;;;;;;;;;18.90;99.90;;;;;;6338649;28;19936;-73
2021/07/17 00:57:51;;;;;;;;;;;19.00;99.90;;;;;;6340845;28;19946;-73
2021/07/17 01:00:54;;;;;;;;;;;18.90;99.90;;;;;;6340122;28;20412;-73
2021/07/17 01:03:56;;;;;;;;;;;18.90;99.90;;;;;;6330238;28;19932;-73
2021/07/17 01:06:58;;;;;;;;;;;18.90;99.90;;;;;;6337101;28;19924;-73
2021/07/17 01:10:01;;;;;;;;;;;18.90;99.90;;;;;;6343187;28;19984;-73
2021/07/17 01:13:02;;;;;;;;;;;18.90;99.90;;;;;;6330495;28;19924;-73
2021/07/17 01:16:04;;;;;;;;;;;18.90;99.90;;;;;;6335415;28;19931;-74
2021/07/17 01:19:09;;;;;;;;;;;18.90;99.90;;;;;;6322286;28;19932;-74
2021/07/17 01:22:10;;;;;;;;;;;18.90;99.90;;;;;;6343482;28;19924;-73
2021/07/17 01:25:14;;;;;;;;;;;18.90;99.90;;;;;;6327480;28;20006;-74
2021/07/17 01:28:16;;;;;;;;;;;18.90;99.90;;;;;;6329591;28;19935;-74
2021/07/17 01:31:18;;;;;;;;;;;18.80;99.90;;;;;;6326021;28;19928;-74
2021/07/17 01:34:20;;;;;;;;;;;18.90;99.90;;;;;;6332439;28;19924;-73
2021/07/17 01:37:22;;;;;;;;;;;18.80;99.90;;;;;;6308737;28;19981;-73
2021/07/17 01:40:25;;;;;;;;;;;18.90;99.90;;;;;;6341898;28;19924;-73
2021/07/17 01:43:27;;;;;;;;;;;18.90;99.90;;;;;;6323293;28;20359;-74
2021/07/17 01:46:29;;;;;;;;;;;18.80;99.90;;;;;;6333682;28;19928;-74
2021/07/17 01:49:31;;;;;;;;;;;18.80;99.90;;;;;;6341732;28;19924;-74
2021/07/17 01:52:33;;;;;;;;;;;18.80;99.90;;;;;;6334257;28;20334;-73
2021/07/17 01:55:34;;;;;;;;;;;18.80;99.90;;;;;;6329168;28;20291;-74
2021/07/17 01:58:36;;;;;;;;;;;18.80;99.90;;;;;;6339369;28;19924;-73
2021/07/17 02:01:38;;;;;;;;;;;18.80;99.90;;;;;;6312008;28;19924;-74
2021/07/17 02:04:40;;;;;;;;;;;18.70;99.90;;;;;;6331428;28;19932;-73
2021/07/17 02:07:42;;;;;;;;;;;18.70;99.90;;;;;;6337027;28;19932;-74
2021/07/17 02:10:44;;;;;;;;;;;18.70;99.90;;;;;;6336469;28;19930;-74
2021/07/17 02:13:47;;;;;;;;;;;18.70;99.90;;;;;;6322637;28;20286;-74
2021/07/17 02:16:49;;;;;;;;;;;18.70;99.90;;;;;;6330129;28;19932;-74
2021/07/17 02:19:50;;;;;;;;;;;18.70;99.90;;;;;;6335235;28;19923;-74
2021/07/17 02:22:52;;;;;;;;;;;18.60;99.90;;;;;;6336736;28;19982;-74
2021/07/17 02:25:54;;;;;;;;;;;18.60;99.90;;;;;;6335148;28;19924;-74
2021/07/17 02:28:56;;;;;;;;;;;18.50;99.90;;;;;;6339796;28;19930;-73
2021/07/17 02:31:57;;;;;;;;;;;18.50;99.90;;;;;;6338680;28;20329;-74
2021/07/17 02:35:00;;;;;;;;;;;18.40;99.90;;;;;;6333362;28;20252;-74
2021/07/17 02:38:02;;;;;;;;;;;18.30;99.90;;;;;;6333800;28;20395;-73
2021/07/17 02:41:04;;;;;;;;;;;18.30;99.90;;;;;;6321726;28;19924;-74
2021/07/17 02:44:06;;;;;;;;;;;18.30;99.90;;;;;;6334169;28;20440;-74
2021/07/17 02:47:07;;;;;;;;;;;18.30;99.90;;;;;;6327683;28;20359;-74
2021/07/17 02:50:09;;;;;;;;;;;18.30;99.90;;;;;;6323173;28;20286;-73
2021/07/17 02:53:11;;;;;;;;;;;18.20;99.90;;;;;;6326842;28;19931;-74
2021/07/17 02:56:13;;;;;;;;;;;18.20;99.90;;;;;;6321921;28;19933;-73
2021/07/17 02:59:14;;;;;;;;;;;18.20;99.90;;;;;;6334838;28;19927;-73
2021/07/17 03:02:16;;;;;;;;;;;18.10;99.90;;;;;;6331710;28;19935;-74
2021/07/17 03:05:18;;;;;;;;;;;18.10;99.90;;;;;;6329747;28;20012;-74
2021/07/17 03:08:22;;;;;;;;;;;18.10;99.90;;;;;;6336325;28;20406;-73
2021/07/17 03:11:23;;;;;;;;;;;18.00;99.90;;;;;;6331322;28;20299;-73
2021/07/17 03:14:25;;;;;;;;;;;17.90;99.90;;;;;;6329204;28;20287;-74
2021/07/17 03:17:27;;;;;;;;;;;17.90;99.90;;;;;;6327014;28;20409;-73
2021/07/17 03:20:29;;;;;;;;;;;17.80;99.90;;;;;;6313851;28;20355;-74
2021/07/17 03:23:30;;;;;;;;;;;17.70;99.90;;;;;;6315604;28;19924;-74
2021/07/17 03:26:32;;;;;;;;;;;17.70;99.90;;;;;;6339273;28;19950;-73
2021/07/17 03:29:34;;;;;;;;;;;17.60;99.90;;;;;;6316737;28;19923;-73
2021/07/17 03:32:35;;;;;;;;;;;17.60;99.90;;;;;;6330355;28;19931;-73
2021/07/17 03:35:37;;;;;;;;;;;17.50;99.90;;;;;;6335011;28;19931;-73
2021/07/17 03:38:39;;;;;;;;;;;17.50;99.90;;;;;;6326220;28;19924;-73
2021/07/17 03:41:40;;;;;;;;;;;17.40;99.90;;;;;;6315200;28;20355;-74
2021/07/17 03:44:42;;;;;;;;;;;17.40;99.90;;;;;;6326256;28;19923;-74
2021/07/17 03:47:44;;;;;;;;;;;17.40;99.90;;;;;;6316576;28;20411;-73
2021/07/17 03:50:45;;;;;;;;;;;17.30;99.90;;;;;;6313703;28;19980;-74
2021/07/17 03:53:47;;;;;;;;;;;17.30;99.90;;;;;;6332542;28;20379;-74
2021/07/17 03:56:49;;;;;;;;;;;17.30;99.90;;;;;;6338895;28;20395;-73
2021/07/17 03:59:50;;;;;;;;;;;17.30;99.90;;;;;;6333496;28;19928;-74
2021/07/17 04:02:52;;;;;;;;;;;17.20;99.90;;;;;;6329577;28;19924;-73
2021/07/17 04:05:54;;;;;;;;;;;17.20;99.90;;;;;;6327373;28;19931;-73
2021/07/17 04:08:56;;;;;;;;;;;17.20;99.90;;;;;;6311062;28;19932;-73
2021/07/17 04:11:57;;;;;;;;;;;17.20;99.90;;;;;;6331555;28;19924;-73
2021/07/17 04:15:00;;;;;;;;;;;17.20;99.90;;;;;;6330589;28;20408;-72
2021/07/17 04:18:01;;;;;;;;;;;17.20;99.90;;;;;;6314857;28;20422;-73
2021/07/17 04:21:03;;;;;;;;;;;17.20;99.90;;;;;;6334017;28;19928;-74
2021/07/17 04:24:05;;;;;;;;;;;17.20;99.90;;;;;;6334992;28;19970;-73
2021/07/17 04:27:07;;;;;;;;;;;17.20;99.90;;;;;;6335879;28;20010;-74
2021/07/17 04:30:11;;;;;;;;;;;17.20;99.90;;;;;;6346055;28;19977;-74
2021/07/17 04:33:12;;;;;;;;;;;17.20;99.90;;;;;;6335130;28;19924;-73
2021/07/17 04:36:21;;;;;;;;;;;17.20;99.90;;;;;;6340337;28;19924;-74
2021/07/17 04:39:26;;;;;;;;;;;17.20;99.90;;;;;;6337781;28;20294;-73
2021/07/17 04:42:28;;;;;;;;;;;17.20;99.90;;;;;;6342640;28;19977;-73
2021/07/17 04:45:29;;;;;;;;;;;17.30;99.90;;;;;;6338747;28;19932;-73
2021/07/17 04:48:31;;;;;;;;;;;17.30;99.90;;;;;;6332227;28;20282;-73
2021/07/17 04:51:32;;;;;;;;;;;17.30;99.90;;;;;;6332425;28;20256;-74
2021/07/17 04:54:34;;;;;;;;;;;17.40;99.90;;;;;;6330112;28;19924;-74
2021/07/17 04:57:36;;;;;;;;;;;17.40;99.90;;;;;;6332270;28;19946;-74
2021/07/17 05:00:37;;;;;;;;;;;17.50;99.90;;;;;;6312861;28;19924;-74
2021/07/17 05:03:39;;;;;;;;;;;17.50;99.90;;;;;;6333901;28;19979;-73
2021/07/17 05:06:41;;;;;;;;;;;17.50;99.90;;;;;;6336905;28;19928;-73
2021/07/17 05:09:43;;;;;;;;;;;17.60;99.90;;;;;;6327331;28;20244;-73
2021/07/17 05:12:44;;;;;;;;;;;17.60;99.90;;;;;;6330325;28;20351;-74
2021/07/17 05:15:46;;;;;;;;;;;17.70;99.90;;;;;;6325977;28;19935;-74
2021/07/17 05:18:48;;;;;;;;;;;17.70;99.90;;;;;;6340378;28;20390;-73
2021/07/17 05:21:49;;;;;;;;;;;17.80;99.90;;;;;;6339584;28;19927;-74
2021/07/17 05:24:51;;;;;;;;;;;17.90;99.90;;;;;;6327018;28;19998;-74
2021/07/17 05:27:53;;;;;;;;;;;18.00;99.90;;;;;;6334426;28;19924;-73
2021/07/17 05:30:54;;;;;;;;;;;18.10;99.90;;;;;;6319341;28;19931;-73
2021/07/17 05:33:56;;;;;;;;;;;18.10;99.90;;;;;;6322085;28;19923;-74
2021/07/17 05:36:58;;;;;;;;;;;18.20;99.90;;;;;;6333549;28;20256;-74
2021/07/17 05:39:59;;;;;;;;;;;18.30;99.90;;;;;;6339182;28;19946;-73
2021/07/17 05:43:01;;;;;;;;;;;18.40;99.90;;;;;;6314604;28;19924;-73
2021/07/17 05:46:03;;;;;;;;;;;18.50;99.90;;;;;;6339994;28;19924;-74
2021/07/17 05:49:05;;;;;;;;;;;18.60;99.90;;;;;;6316989;28;19924;-73
2021/07/17 05:52:06;;;;;;;;;;;18.70;99.90;;;;;;6330088;28;19924;-73
2021/07/17 05:55:08;;;;;;;;;;;18.80;99.90;;;;;;6335817;28;20379;-74
2021/07/17 05:58:10;;;;;;;;;;;18.80;99.90;;;;;;6323207;28;19931;-74
2021/07/17 06:01:12;;;;;;;;;;;18.90;99.90;;;;;;6321892;28;19924;-74
2021/07/17 06:04:14;;;;;;;;;;;19.00;99.90;;;;;;6326382;28;19933;-73
2021/07/17 06:07:15;;;;;;;;;;;19.10;99.90;;;;;;6336585;28;19924;-73
2021/07/17 06:10:17;;;;;;;;;;;19.20;99.90;;;;;;6333614;28;19939;-74
2021/07/17 06:13:19;;;;;;;;;;;19.30;99.90;;;;;;6336495;28;19924;-74
2021/07/17 06:16:20;;;;;;;;;;;19.40;99.90;;;;;;6334791;28;19935;-74
2021/07/17 06:19:22;;;;;;;;;;;19.50;99.90;;;;;;6342311;28;19931;-74
2021/07/17 06:22:24;;;;;;;;;;;19.60;99.90;;;;;;6318356;28;19924;-73
2021/07/17 06:25:26;;;;;;;;;;;19.60;99.90;;;;;;6326510;28;19931;-74
2021/07/17 06:28:27;;;;;;;;;;;19.70;99.90;;;;;;6337293;28;19931;-74
2021/07/17 06:31:29;;;;;;;;;;;19.80;99.90;;;;;;6340653;28;20294;-74
2021/07/17 06:34:31;;;;;;;;;;;19.80;99.90;;;;;;6338107;28;19928;-73
2021/07/17 06:37:33;;;;;;;;;;;19.90;99.90;;;;;;6327861;28;19928;-74
2021/07/17 06:40:35;;;;;;;;;;;20.00;99.90;;;;;;6346856;28;19924;-74
2021/07/17 06:43:36;;;;;;;;;;;20.00;99.90;;;;;;6312343;28;19932;-74
2021/07/17 06:46:38;;;;;;;;;;;20.20;99.90;;;;;;6338936;28;20291;-73
2021/07/17 06:49:40;;;;;;;;;;;20.20;99.90;;;;;;6334988;28;19930;-74
2021/07/17 06:52:42;;;;;;;;;;;20.30;99.90;;;;;;6341998;28;19931;-74
2021/07/17 06:55:44;;;;;;;;;;;20.40;99.90;;;;;;6327935;28;19936;-74
2021/07/17 06:58:45;;;;;;;;;;;20.50;99.90;;;;;;6331729;28;19930;-74
2021/07/17 07:01:47;;;;;;;;;;;20.60;99.90;;;;;;6335918;28;19932;-74
2021/07/17 07:04:49;;;;;;;;;;;20.60;99.90;;;;;;6315293;28;20243;-73
2021/07/17 07:07:51;;;;;;;;;;;20.70;99.90;;;;;;6331703;28;20428;-74
2021/07/17 07:10:53;;;;;;;;;;;20.70;99.90;;;;;;6330742;28;19943;-75
2021/07/17 07:13:59;;;;;;;;;;;20.70;99.90;;;;;;6329740;28;19924;-74
2021/07/17 07:17:00;;;;;;;;;;;20.80;99.90;;;;;;6334979;28;20014;-74
2021/07/17 07:20:06;;;;;;;;;;;20.80;99.90;;;;;;6330320;28;20684;-74
2021/07/17 07:23:10;;;;;;;;;;;20.90;99.90;;;;;;6333650;28;21290;-74
2021/07/17 07:26:12;;;;;;;;;;;20.90;99.90;;;;;;6334837;28;19928;-74
2021/07/17 07:29:14;;;;;;;;;;;21.00;99.90;;;;;;6329028;28;19924;-74
2021/07/17 07:32:15;;;;;;;;;;;21.00;99.90;;;;;;6328588;28;19931;-74
2021/07/17 07:35:21;;;;;;;;;;;21.00;99.90;;;;;;6325300;28;20008;-74
2021/07/17 07:38:22;;;;;;;;;;;21.00;99.90;;;;;;6327151;28;20015;-74
2021/07/17 07:41:24;;;;;;;;;;;21.00;99.90;;;;;;6326617;28;19932;-74
2021/07/17 07:44:26;;;;;;;;;;;21.00;99.90;;;;;;6324759;28;19924;-74
2021/07/17 07:47:28;;;;;;;;;;;21.10;99.90;;;;;;6322563;28;19993;-74
2021/07/17 07:50:30;;;;;;;;;;;21.20;99.90;;;;;;6328086;28;20328;-73
2021/07/17 07:53:31;;;;;;;;;;;21.20;99.90;;;;;;6327228;28;19939;-74
2021/07/17 07:56:33;;;;;;;;;;;21.20;99.90;;;;;;6327533;28;19930;-74
2021/07/17 07:59:35;;;;;;;;;;;21.30;99.90;;;;;;6323857;28;19928;-74
2021/07/17 08:02:37;;;;;;;;;;;21.40;99.90;;;;;;6325756;28;19928;-73
2021/07/17 08:05:39;;;;;;;;;;;21.40;99.90;;;;;;6326237;28;19924;-73
2021/07/17 08:08:40;;;;;;;;;;;21.50;99.90;;;;;;6307694;28;19931;-74
2021/07/17 08:11:42;;;;;;;;;;;21.50;99.90;;;;;;6324978;28;19939;-74
2021/07/17 08:14:44;;;;;;;;;;;21.50;99.90;;;;;;6326417;28;19939;-74
2021/07/17 08:17:46;;;;;;;;;;;21.50;99.90;;;;;;6325165;28;19928;-74
2021/07/17 08:20:47;;;;;;;;;;;21.60;99.90;;;;;;6326073;28;19959;-74
2021/07/17 08:23:49;;;;;;;;;;;21.60;99.90;;;;;;6307836;28;19938;-74
2021/07/17 08:26:51;;;;;;;;;;;21.60;99.90;;;;;;6323894;28;19928;-73
2021/07/17 08:29:52;;;;;;;;;;;21.70;99.90;;;;;;6323890;28;19928;-74
2021/07/17 08:32:54;;;;;;;;;;;21.70;99.90;;;;;;6304373;28;20076;-74
2021/07/17 08:35:56;;;;;;;;;;;21.70;99.90;;;;;;6325172;28;20527;-74
2021/07/17 08:38:58;;;;;;;;;;;21.70;99.90;;;;;;6328817;28;20286;-74
2021/07/17 08:42:01;;;;;;;;;;;21.70;99.90;;;;;;6330374;28;19928;-74
2021/07/17 08:45:04;;;;;;;;;;;21.60;99.90;;;;;;6331206;28;19923;-74
2021/07/17 08:48:08;;;;;;;;;;;21.70;99.90;;;;;;6318554;28;19978;-74
2021/07/17 08:51:10;;;;;;;;;;;21.70;99.90;;;;;;6322514;28;19923;-74
2021/07/17 08:54:13;;;;;;;;;;;21.70;99.90;;;;;;6323239;28;19928;-73
2021/07/17 08:57:14;;;;;;;;;;;21.70;99.90;;;;;;6323318;28;19928;-74
2021/07/17 09:00:21;;;;;;;;;;;21.80;99.90;;;;;;6326152;28;19931;-73
2021/07/17 09:03:24;;;;;;;;;;;21.80;99.90;;;;;;6320353;28;20375;-74
2021/07/17 09:06:26;;;;;;;;;;;21.80;99.90;;;;;;6312487;28;19939;-74
2021/07/17 09:09:31;;;;;;;;;;;21.90;99.90;;;;;;6328256;28;19924;-74
2021/07/17 09:12:32;;;;;;;;;;;22.00;99.90;;;;;;6326284;28;20384;-74
2021/07/17 09:15:35;;;;;;;;;;;22.00;99.90;;;;;;6325506;28;19923;-74
2021/07/17 09:18:38;;;;;;;;;;;22.00;99.90;;;;;;6330366;28;19924;-74
2021/07/17 09:21:41;;;;;;;;;;;22.10;99.90;;;;;;6327988;28;19932;-73
2021/07/17 09:25:02;;;;;;;;;;;22.10;99.90;;;;;;6331137;28;19928;-73
2021/07/17 09:28:21;;;;;;;;;;;22.10;99.90;;;;;;6310857;28;19928;-74
2021/07/17 09:31:23;;;;;;;;;;;22.20;99.90;;;;;;6327492;28;19969;-74
2021/07/17 09:34:28;;;;;;;;;;;22.20;99.90;;;;;;6310488;28;20087;-74
2021/07/17 09:37:30;;;;;;;;;;;22.20;99.90;;;;;;6325786;28;19924;-74
2021/07/17 09:40:42;;;;;;;;;;;22.20;99.90;;;;;;6327276;28;19935;-74
2021/07/17 09:44:00;;;;;;;;;;;22.20;99.90;;;;;;6301418;28;19939;-73
2021/07/17 09:47:13;;;;;;;;;;;22.20;99.90;;;;;;6318253;28;20375;-74
2021/07/17 09:50:15;;;;;;;;;;;22.30;99.90;;;;;;6303949;28;19931;-74
2021/07/17 09:53:36;;;;;;;;;;;22.30;99.90;;;;;;6320861;28;20414;-73
2021/07/17 09:56:40;;;;;;;;;;;22.30;99.90;;;;;;6329615;28;19931;-74
2021/07/17 09:59:44;;;;;;;;;;;22.30;99.90;;;;;;6329719;28;19938;-74
2021/07/17 10:02:46;;;;;;;;;;;22.40;99.90;;;;;;6327025;28;19939;-74
2021/07/17 10:05:48;;;;;;;;;;;22.40;99.90;;;;;;6327024;28;19928;-74
2021/07/17 10:08:49;;;;;;;;;;;22.50;99.90;;;;;;6329684;28;20363;-74
2021/07/17 10:11:53;;;;;;;;;;;22.60;99.90;;;;;;6321379;28;19939;-73
2021/07/17 10:14:55;;;;;;;;;;;22.70;99.90;;;;;;6320912;28;19960;-74
2021/07/17 10:18:03;;;;;;;;;;;22.70;99.90;;;;;;6299617;28;19931;-74
2021/07/17 10:21:04;;;;;;;;;;;22.80;99.90;;;;;;6320805;28;19932;-74
2021/07/17 10:24:06;;;;;;;;;;;22.80;99.90;;;;;;6324404;28;19932;-74
2021/07/17 10:27:08;;;;;;;;;;;22.90;99.90;;;;;;6322527;28;20376;-73
2021/07/17 10:30:10;;;;;;;;;;;22.90;99.90;;;;;;6326934;28;19976;-74
2021/07/17 10:33:31;;;;;;;;;;;23.00;99.90;;;;;;6312504;28;20433;-74
2021/07/17 10:36:36;;;;;;;;;;;23.00;99.90;;;;;;6322334;28;19928;-74
2021/07/17 10:39:42;;;;;;;;;;;23.00;99.90;;;;;;6316579;28;20367;-74
2021/07/17 10:42:51;;;;;;;;;;;23.10;99.90;;;;;;6315958;28;19927;-74
2021/07/17 10:45:54;;;;;;;;;;;23.10;99.90;;;;;;6317356;28;19928;-73
2021/07/17 10:48:56;;;;;;;;;;;23.20;99.90;;;;;;6317287;28;19923;-74
2021/07/17 10:51:58;;;;;;;;;;;23.20;99.90;;;;;;6315622;28;19928;-73
2021/07/17 10:55:19;;;;;;;;;;;23.20;99.90;;;;;;6316711;28;20306;-74
2021/07/17 10:58:24;;;;;;;;;;;23.30;99.90;;;;;;6314899;28;19955;-74
2021/07/17 11:01:26;;;;;;;;;;;23.30;99.90;;;;;;6315623;28;20256;-73
2021/07/17 11:04:39;;;;;;;;;;;23.30;99.90;;;;;;6312426;28;19928;-74
2021/07/17 11:07:42;;;;;;;;;;;23.40;99.90;;;;;;6319569;28;19986;-74
2021/07/17 11:10:44;;;;;;;;;;;23.40;99.90;;;;;;6315000;28;20004;-74
2021/07/17 11:13:46;;;;;;;;;;;23.50;99.90;;;;;;6317881;28;19924;-74
2021/07/17 11:16:48;;;;;;;;;;;23.60;99.90;;;;;;6311898;28;19931;-73
2021/07/17 11:19:54;;;;;;;;;;;23.60;99.90;;;;;;6322948;28;19927;-73
2021/07/17 11:23:03;;;;;;;;;;;23.60;99.90;;;;;;6312282;28;20390;-74
2021/07/17 11:26:07;;;;;;;;;;;23.60;99.90;;;;;;6329225;28;19932;-74
2021/07/17 11:29:10;;;;;;;;;;;23.60;99.90;;;;;;6300228;28;19935;-73
2021/07/17 11:32:16;;;;;;;;;;;23.50;99.90;;;;;;6321857;28;19931;-73
2021/07/17 11:35:24;;;;;;;;;;;23.50;99.90;;;;;;6326463;28;20007;-73
2021/07/17 11:38:26;;;;;;;;;;;23.50;99.90;;;;;;6321180;28;19924;-74
2021/07/17 11:41:27;;;;;;;;;;;23.50;99.90;;;;;;6300257;28;20394;-74
2021/07/17 11:44:30;;;;;;;;;;;23.50;99.90;;;;;;6299398;28;19935;-74
2021/07/17 11:47:35;;;;;;;;;;;23.50;99.90;;;;;;6318859;28;19976;-74
2021/07/17 11:50:38;;;;;;;;;;;23.50;99.90;;;;;;6318752;28;19931;-73
2021/07/17 11:53:40;;;;;;;;;;;23.60;99.90;;;;;;6313881;28;20412;-74
2021/07/17 11:56:42;;;;;;;;;;;23.60;99.90;;;;;;6326271;28;19931;-73
2021/07/17 11:59:48;;;;;;;;;;;23.60;99.90;;;;;;6327133;28;19939;-74
2021/07/17 12:02:52;;;;;;;;;;;23.60;99.90;;;;;;6303298;28;20375;-74
2021/07/17 12:05:54;;;;;;;;;;;23.60;99.90;;;;;;6325425;28;20385;-73
2021/07/17 12:09:07;;;;;;;;;;;23.60;99.90;;;;;;6315730;28;19946;-74
2021/07/17 12:12:17;;;;;;;;;;;23.60;99.90;;;;;;6319926;28;19928;-75
2021/07/17 12:15:19;;;;;;;;;;;23.70;99.90;;;;;;6326212;28;19932;-74
2021/07/17 12:18:22;;;;;;;;;;;23.70;99.90;;;;;;6313739;28;19934;-74
2021/07/17 12:21:24;;;;;;;;;;;23.70;99.90;;;;;;6324564;28;19932;-73
2021/07/17 12:24:25;;;;;;;;;;;23.70;99.90;;;;;;6304890;28;19927;-73
2021/07/17 12:27:27;;;;;;;;;;;23.80;99.90;;;;;;6307954;28;19928;-74
2021/07/17 12:30:30;;;;;;;;;;;23.80;99.90;;;;;;6323703;28;19932;-74
2021/07/17 12:33:41;;;;;;;;;;;23.80;99.90;;;;;;6312780;28;19932;-74
2021/07/17 12:36:43;;;;;;;;;;;23.90;99.90;;;;;;6329018;28;20945;-74
2021/07/17 12:39:45;;;;;;;;;;;23.90;99.90;;;;;;6320101;28;20567;-74
2021/07/17 12:42:48;;;;;;;;;;;23.90;99.90;;;;;;6318096;28;20077;-74
2021/07/17 12:45:55;;;;;;;;;;;23.90;99.90;;;;;;6321843;28;19943;-74
2021/07/17 12:49:01;;;;;;;;;;;23.90;99.90;;;;;;6319970;28;19924;-74
2021/07/17 12:52:03;;;;;;;;;;;23.90;99.90;;;;;;6332944;28;20382;-74
2021/07/17 12:55:05;;;;;;;;;;;23.90;99.90;;;;;;6326484;28;19935;-73
2021/07/17 12:58:08;;;;;;;;;;;23.90;99.90;;;;;;6328292;28;19930;-74
2021/07/17 13:01:10;;;;;;;;;;;23.90;99.90;;;;;;6312583;28;20047;-74
2021/07/17 13:04:13;;;;;;;;;;;24.00;99.90;;;;;;6326879;28;20014;-74
2021/07/17 13:07:15;;;;;;;;;;;24.00;99.90;;;;;;6326734;28;20351;-74
2021/07/17 13:10:17;;;;;;;;;;;24.00;99.90;;;;;;6329186;28;19924;-74
2021/07/17 13:13:30;;;;;;;;;;;24.00;99.90;;;;;;6330871;28;19930;-74
2021/07/17 13:16:33;;;;;;;;;;;24.00;99.90;;;;;;6329379;28;19989;-74
2021/07/17 13:19:35;;;;;;;;;;;24.00;99.90;;;;;;6325394;28;19935;-74
2021/07/17 13:22:45;;;;;;;;;;;24.10;99.90;;;;;;6317017;28;19928;-74
2021/07/17 13:25:47;;;;;;;;;;;24.10;99.90;;;;;;6326367;28;19931;-73
2021/07/17 13:28:49;;;;;;;;;;;24.10;99.90;;;;;;6329003;28;19931;-74
2021/07/17 13:31:52;;;;;;;;;;;24.20;99.90;;;;;;6308599;28;19924;-73
2021/07/17 13:34:55;;;;;;;;;;;24.20;99.90;;;;;;6326042;28;20077;-74
2021/07/17 13:38:00;;;;;;;;;;;24.10;99.90;;;;;;6331235;28;20356;-73
2021/07/17 13:41:11;;;;;;;;;;;24.20;99.90;;;;;;6327363;28;19924;-74
2021/07/17 13:44:14;;;;;;;;;;;24.20;99.90;;;;;;6306167;28;19931;-74
2021/07/17 13:47:16;;;;;;;;;;;24.20;99.90;;;;;;6326591;28;19924;-74
2021/07/17 13:50:21;;;;;;;;;;;24.20;99.90;;;;;;6320419;28;20287;-74
2021/07/17 13:53:27;;;;;;;;;;;24.20;99.90;;;;;;6323984;28;19924;-74
2021/07/17 13:56:28;;;;;;;;;;;24.20;99.90;;;;;;6317900;28;19934;-73
2021/07/17 13:59:30;;;;;;;;;;;24.20;99.90;;;;;;6320818;28;19936;-73
2021/07/17 14:02:32;;;;;;;;;;;24.20;99.90;;;;;;6315459;28;19928;-74
2021/07/17 14:05:33;;;;;;;;;;;24.30;99.90;;;;;;6323467;28;19932;-75
2021/07/17 14:08:36;;;;;;;;;;;24.30;99.90;;;;;;6325724;28;19954;-73
2021/07/17 14:11:38;;;;;;;;;;;24.40;99.90;;;;;;6325686;28;19924;-74
2021/07/17 14:14:40;;;;;;;;;;;24.40;99.90;;;;;;6309816;28;19931;-74
2021/07/17 14:17:42;;;;;;;;;;;24.40;99.90;;;;;;6324600;28;19970;-74
2021/07/17 14:20:43;;;;;;;;;;;24.50;99.90;;;;;;6331488;28;19973;-74
2021/07/17 14:23:46;;;;;;;;;;;24.50;99.90;;;;;;6328037;28;20613;-73
2021/07/17 14:26:48;;;;;;;;;;;24.50;99.90;;;;;;6328804;28;19932;-74
2021/07/17 14:29:49;;;;;;;;;;;24.50;99.90;;;;;;6314069;28;20390;-74
2021/07/17 14:32:51;;;;;;;;;;;24.50;99.90;;;;;;6326555;28;19978;-74
2021/07/17 14:35:53;;;;;;;;;;;24.60;99.90;;;;;;6324427;28;19966;-74
2021/07/17 14:38:55;;;;;;;;;;;24.60;99.90;;;;;;6325502;28;20362;-74
2021/07/17 14:41:56;;;;;;;;;;;24.70;99.90;;;;;;6327172;28;19978;-74
2021/07/17 14:44:59;;;;;;;;;;;24.70;99.90;;;;;;6324347;28;19927;-74
2021/07/17 14:48:00;;;;;;;;;;;24.70;99.90;;;;;;6327207;28;19955;-75
2021/07/17 14:51:02;;;;;;;;;;;24.80;99.90;;;;;;6327492;28;19977;-75
2021/07/17 14:54:04;;;;;;;;;;;24.80;99.90;;;;;;6309587;28;19927;-74
2021/07/17 14:57:06;;;;;;;;;;;24.80;99.90;;;;;;6329204;28;19966;-75
2021/07/17 15:00:09;;;;;;;;;;;24.80;99.90;;;;;;6328211;28;19931;-74
2021/07/17 15:03:26;;;;;;;;;;;24.90;99.90;;;;;;6321144;28;20014;-74
2021/07/17 15:06:28;;;;;;;;;;;24.90;99.90;;;;;;6326248;28;19924;-74
2021/07/17 15:09:30;;;;;;;;;;;24.90;99.90;;;;;;6326276;28;19931;-73
2021/07/17 15:12:31;;;;;;;;;;;24.90;99.90;;;;;;6300263;28;19939;-73
2021/07/17 15:15:33;;;;;;;;;;;25.00;99.90;;;;;;6310529;28;19951;-74
2021/07/17 15:18:35;;;;;;;;;;;25.00;99.90;;;;;;6324018;28;19932;-74
2021/07/17 15:21:37;;;;;;;;;;;25.00;99.90;;;;;;6324850;28;19932;-74
2021/07/17 15:24:39;;;;;;;;;;;25.00;99.90;;;;;;6327161;28;20376;-73
2021/07/17 15:27:58;;;;;;;;;;;25.10;99.90;;;;;;6329098;28;19928;-74
2021/07/17 15:31:00;;;;;;;;;;;25.10;99.90;;;;;;6328074;28;19930;-74
2021/07/17 15:34:04;;;;;;;;;;;25.10;99.90;;;;;;6320111;28;20023;-74
2021/07/17 15:37:07;;;;;;;;;;;25.10;99.90;;;;;;6323270;28;19989;-73
2021/07/17 15:40:09;;;;;;;;;;;25.10;99.90;;;;;;6327303;28;20445;-73
2021/07/17 15:43:13;;;;;;;;;;;25.20;99.90;;;;;;6325729;28;20020;-74
2021/07/17 15:46:14;;;;;;;;;;;25.20;99.90;;;;;;6325995;28;19928;-74
2021/07/17 15:49:16;;;;;;;;;;;25.30;99.90;;;;;;6320080;28;19931;-74
2021/07/17 15:52:17;;;;;;;;;;;25.40;99.90;;;;;;6321977;28;19935;-74
2021/07/17 15:55:20;;;;;;;;;;;25.40;99.90;;;;;;6323199;28;19928;-74
2021/07/17 15:58:21;;;;;;;;;;;25.50;99.90;;;;;;6311807;28;19924;-74
2021/07/17 16:01:23;;;;;;;;;;;25.60;99.90;;;;;;6325064;28;19924;-74
2021/07/17 16:04:26;;;;;;;;;;;25.70;99.90;;;;;;6322183;28;19924;-73
2021/07/17 16:07:28;;;;;;;;;;;25.80;99.90;;;;;;6325015;28;20367;-73
2021/07/17 16:10:29;;;;;;;;;;;25.90;99.90;;;;;;6313752;28;19924;-74
2021/07/17 16:13:31;;;;;;;;;;;26.10;99.90;;;;;;6328345;28;19931;-74
2021/07/17 16:16:33;;;;;;;;;;;26.20;99.90;;;;;;6331720;28;20572;-74
2021/07/17 16:19:35;;;;;;;;;;;26.30;99.90;;;;;;6327214;28;19967;-73
2021/07/17 16:22:36;;;;;;;;;;;26.50;99.90;;;;;;6327074;28;20363;-73
2021/07/17 16:25:39;;;;;;;;;;;26.50;99.90;;;;;;6323956;28;20064;-74
2021/07/17 16:28:40;;;;;;;;;;;26.60;99.90;;;;;;6327615;28;19935;-74
2021/07/17 16:31:42;;;;;;;;;;;26.70;99.90;;;;;;6328493;28;22202;-74
2021/07/17 16:34:44;;;;;;;;;;;26.70;99.90;;;;;;6324747;28;19978;-73
2021/07/17 16:37:47;;;;;;;;;;;26.70;99.90;;;;;;6309991;28;19931;-74
2021/07/17 16:40:49;;;;;;;;;;;26.80;99.90;;;;;;6326581;28;19932;-73
2021/07/17 16:43:51;;;;;;;;;;;26.90;99.90;;;;;;6325882;28;19928;-74
2021/07/17 16:46:52;;;;;;;;;;;27.00;99.90;;;;;;6327627;28;19932;-73
2021/07/17 16:49:54;;;;;;;;;;;27.00;99.90;;;;;;6326485;28;19932;-74
2021/07/17 16:53:00;;;;;;;;;;;26.90;99.90;;;;;;6330546;28;21094;-74
2021/07/17 16:56:02;;;;;;;;;;;26.80;99.90;;;;;;6309518;28;19924;-73
2021/07/17 16:59:05;;;;;;;;;;;26.70;99.90;;;;;;6333494;28;19931;-74
2021/07/17 17:02:07;;;;;;;;;;;26.50;99.90;;;;;;6324909;28;20505;-74
2021/07/17 17:05:10;;;;;;;;;;;26.40;99.90;;;;;;6323514;28;20372;-73
2021/07/17 17:08:11;;;;;;;;;;;26.30;99.90;;;;;;6328782;28;19924;-74
2021/07/17 17:11:13;;;;;;;;;;;26.20;99.90;;;;;;6327322;28;20590;-73
2021/07/17 17:14:15;;;;;;;;;;;26.10;99.90;;;;;;6308133;28;19927;-73
2021/07/17 17:17:17;;;;;;;;;;;26.00;99.90;;;;;;6327766;28;20302;-74
2021/07/17 17:20:22;;;;;;;;;;;25.90;99.90;;;;;;6322970;28;20436;-74
2021/07/17 17:23:24;;;;;;;;;;;25.90;99.90;;;;;;6324090;28;19938;-74
2021/07/17 17:26:25;;;;;;;;;;;25.80;99.90;;;;;;6327904;28;19932;-73
2021/07/17 17:29:27;;;;;;;;;;;25.80;99.90;;;;;;6329385;28;19924;-74
2021/07/17 17:32:29;;;;;;;;;;;25.70;99.90;;;;;;6328283;28;19928;-74
2021/07/17 17:35:30;;;;;;;;;;;25.70;99.90;;;;;;6326933;28;19924;-74
2021/07/17 17:38:32;;;;;;;;;;;25.70;99.90;;;;;;6328383;28;19935;-73
2021/07/17 17:41:34;;;;;;;;;;;25.60;99.90;;;;;;6328752;28;20048;-74